Chittenden, Vermont
Current Conditions -  °F | °C
As of 1:15 PM on Thursday 29 Jan 2015 (Local Time) from KRUT Reporting Station
Clear Clear  
Wind Chill: 23°   Ceiling: Unl
Heat Index: 34°   Visibility: 10mi
Dew Point:   Wind: 17mph
Humidity: 32%   Direction: 130°SE
Pressure: 30.08"   Gusts: 21mph
Location:  43.71°N, 72.95°W
Report Text: KRUT 291815Z 13015G18KT 10SM CLR 01/M14 A3008 RMK AO1
Loading
Personal Weather Stations






























Interactive Weather Map New forecast layout! Learn more

10-Day Weather Forecast

Advertisements
Track Severe Weather on mobile